createdAt,value
2022-10-05T00:02:23.948Z,99168.34
2022-10-05T00:04:56.416Z,99174.72
2022-10-05T00:07:24.986Z,99175.76
2022-10-05T00:09:56.971Z,99177.16
2022-10-05T00:12:25.164Z,99183.04
2022-10-05T00:14:55.158Z,99189.45
2022-10-05T00:17:24.351Z,99194.79
2022-10-05T00:19:52.062Z,99191.20
2022-10-05T00:22:24.809Z,99190.67
2022-10-05T00:24:56.546Z,99191.52
2022-10-05T00:27:26.811Z,99191.36
2022-10-05T00:29:58.602Z,99191.69
2022-10-05T00:32:25.142Z,99190.63
2022-10-05T00:34:52.090Z,99186.66
2022-10-05T00:37:18.735Z,99191.09
2022-10-05T00:39:46.120Z,99190.88
2022-10-05T00:42:40.065Z,99187.45
2022-10-05T00:45:16.190Z,99183.67
2022-10-05T00:47:42.620Z,99179.73
2022-10-05T00:50:50.999Z,99180.94
2022-10-05T00:53:30.038Z,99183.17
2022-10-05T00:56:07.228Z,99183.90
2022-10-05T00:59:19.131Z,99187.54
2022-10-05T01:02:03.006Z,99181.17
2022-10-05T01:04:42.992Z,99174.79
2022-10-05T01:07:33.867Z,99179.91
2022-10-05T01:10:13.679Z,99184.38
2022-10-05T01:12:52.328Z,99185.23
2022-10-05T01:15:32.796Z,99182.83
2022-10-05T01:18:25.677Z,99185.58
2022-10-05T01:20:54.962Z,99183.73
2022-10-05T01:23:27.218Z,99186.15
2022-10-05T01:26:21.550Z,99186.55
2022-10-05T01:28:57.830Z,99191.25
2022-10-05T01:31:54.782Z,99193.86
2022-10-05T01:34:27.016Z,99197.17
2022-10-05T01:36:56.544Z,99193.43
2022-10-05T01:39:49.136Z,99197.20
2022-10-05T01:42:33.771Z,99199.41
2022-10-05T01:45:45.394Z,99201.81
2022-10-05T01:48:30.752Z,99204.16
2022-10-05T01:51:16.030Z,99206.89
2022-10-05T01:54:08.684Z,99202.08
2022-10-05T01:56:53.858Z,99196.77
2022-10-05T01:59:29.920Z,99201.22
2022-10-05T02:02:03.843Z,99207.91
2022-10-05T02:07:33.882Z,99205.20
2022-10-05T02:10:08.922Z,99205.53
2022-10-05T02:12:38.368Z,99197.10
2022-10-05T02:15:16.245Z,99195.73
2022-10-05T02:17:50.191Z,99195.39
2022-10-05T02:20:29.977Z,99190.63
2022-10-05T02:23:02.691Z,99187.39
2022-10-05T02:25:35.173Z,99188.08
2022-10-05T02:28:08.914Z,99181.91
2022-10-05T02:30:43.271Z,99173.19
2022-10-05T02:33:23.480Z,99175.09
2022-10-05T02:35:50.015Z,99176.98
2022-10-05T02:38:32.836Z,99175.15
2022-10-05T02:41:15.220Z,99169.36
2022-10-05T02:43:56.463Z,99181.22
2022-10-05T02:46:57.163Z,99179.55
2022-10-05T02:49:42.309Z,99182.46
2022-10-05T02:52:31.011Z,99179.58
2022-10-05T02:55:31.395Z,99171.55
2022-10-05T02:58:04.827Z,99164.35
2022-10-05T03:00:38.021Z,99163.31
2022-10-05T03:03:08.492Z,99166.35
2022-10-05T03:05:41.626Z,99162.89
2022-10-05T03:08:17.806Z,99155.17
2022-10-05T03:11:25.995Z,99150.40
2022-10-05T03:14:21.683Z,99159.16
2022-10-05T03:17:14.542Z,99167.91
2022-10-05T03:20:35.275Z,99165.21
2022-10-05T03:23:04.566Z,99164.73
2022-10-05T03:25:40.328Z,99163.89
2022-10-05T03:28:21.793Z,99161.84
2022-10-05T03:30:59.991Z,99153.95
2022-10-05T03:33:29.651Z,99150.02
2022-10-05T03:36:03.754Z,99151.07
2022-10-05T03:38:48.931Z,99145.97
2022-10-05T03:41:15.372Z,99145.34
2022-10-05T03:43:59.015Z,99146.73
2022-10-05T03:46:43.838Z,99151.55
2022-10-05T03:49:19.477Z,99151.92
2022-10-05T03:51:51.063Z,99151.62
2022-10-05T03:54:25.007Z,99149.92
2022-10-05T03:56:58.364Z,99142.91
2022-10-05T03:59:34.111Z,99144.42
2022-10-05T04:02:04.802Z,99149.69
2022-10-05T04:04:48.875Z,99149.36
2022-10-05T04:07:27.782Z,99140.65
2022-10-05T04:09:55.895Z,99141.36
2022-10-05T04:12:27.521Z,99141.88
2022-10-05T04:14:59.324Z,99148.23
2022-10-05T04:17:40.872Z,99149.10
2022-10-05T04:20:35.583Z,99148.09
2022-10-05T04:23:21.369Z,99147.42
2022-10-05T04:25:54.059Z,99147.57
2022-10-05T04:28:20.653Z,99154.20
2022-10-05T04:30:51.173Z,99162.23
2022-10-05T04:33:21.389Z,99167.88
2022-10-05T04:36:00.193Z,99174.73
2022-10-05T04:38:26.566Z,99177.31
2022-10-05T04:41:08.421Z,99172.18
2022-10-05T04:43:59.645Z,99162.95
2022-10-05T04:46:52.583Z,99160.02
2022-10-05T04:49:34.013Z,99159.63
2022-10-05T04:52:19.785Z,99155.32
2022-10-05T04:55:07.422Z,99161.93
2022-10-05T04:57:55.235Z,99161.88
2022-10-05T05:00:24.703Z,99157.89
2022-10-05T05:03:09.873Z,99159.06
2022-10-05T05:06:15.888Z,99164.31
2022-10-05T05:09:12.133Z,99167.67
2022-10-05T05:12:09.836Z,99175.98
2022-10-05T05:14:46.822Z,99170.41
2022-10-05T05:17:46.847Z,99160.05
2022-10-05T05:20:28.439Z,99161.11
2022-10-05T05:23:06.041Z,99168.58
2022-10-05T05:26:10.169Z,99173.16
2022-10-05T05:28:50.224Z,99174.83
2022-10-05T05:31:32.627Z,99167.95
2022-10-05T05:34:11.262Z,99162.23
2022-10-05T05:36:50.601Z,99156.52
2022-10-05T05:39:24.444Z,99148.72
2022-10-05T05:41:57.194Z,99159.10
2022-10-05T05:44:30.182Z,99165.35
2022-10-05T05:47:09.171Z,99165.91
2022-10-05T05:49:48.494Z,99163.13
2022-10-05T05:52:41.773Z,99159.95
2022-10-05T05:55:13.508Z,99160.20
2022-10-05T05:58:15.147Z,99157.98
2022-10-05T06:00:52.536Z,99159.08
2022-10-05T06:03:30.396Z,99153.70
2022-10-05T06:06:09.726Z,99162.84
2022-10-05T06:08:41.913Z,99158.45
2022-10-05T06:11:21.811Z,99156.27
2022-10-05T06:13:49.139Z,99155.98
2022-10-05T06:16:25.676Z,99152.83
2022-10-05T06:19:02.954Z,99151.98
2022-10-05T06:21:41.662Z,99143.30
2022-10-05T06:24:18.136Z,99139.69
2022-10-05T06:27:00.778Z,99135.57
2022-10-05T06:29:57.636Z,99134.96
2022-10-05T06:32:55.442Z,99135.92
2022-10-05T06:35:43.933Z,99124.86
2022-10-05T06:38:45.085Z,99128.68
2022-10-05T06:42:01.293Z,99124.09
2022-10-05T06:44:44.317Z,99126.71
2022-10-05T06:47:49.982Z,99132.02
2022-10-05T06:50:32.835Z,99140.85
2022-10-05T06:53:05.318Z,99145.27
2022-10-05T06:55:50.453Z,99150.58
2022-10-05T06:58:39.009Z,99150.48
2022-10-05T07:01:16.271Z,99153.59
2022-10-05T07:03:58.002Z,99151.13
2022-10-05T07:06:49.368Z,99146.63
2022-10-05T07:09:49.658Z,99146.11
2022-10-05T07:12:26.255Z,99151.13
2022-10-05T07:15:14.483Z,99152.40
2022-10-05T07:17:58.328Z,99157.66
2022-10-05T07:20:30.240Z,99165.63
2022-10-05T07:23:38.111Z,99166.96
2022-10-05T07:26:12.635Z,99165.96
2022-10-05T07:29:12.665Z,99163.75
2022-10-05T07:31:57.636Z,99161.85
2022-10-05T07:34:36.257Z,99166.09
2022-10-05T07:37:31.497Z,99156.08
2022-10-05T07:40:11.529Z,99148.94
2022-10-05T07:43:00.004Z,99150.04
2022-10-05T07:45:50.546Z,99148.77
2022-10-05T07:48:27.541Z,99147.30
2022-10-05T07:50:53.910Z,99152.73
2022-10-05T07:53:30.367Z,99150.72
2022-10-05T07:56:05.016Z,99141.34
2022-10-05T07:58:37.240Z,99139.33
2022-10-05T08:01:22.561Z,99133.30
2022-10-05T08:04:10.704Z,99125.97
2022-10-05T08:06:54.497Z,99120.33
2022-10-05T08:09:39.396Z,99121.85
2022-10-05T08:12:43.874Z,99120.23
2022-10-05T08:15:20.248Z,99116.29
2022-10-05T08:18:01.458Z,99111.86
2022-10-05T08:20:50.008Z,99107.90
2022-10-05T08:23:25.639Z,99102.58
2022-10-05T08:26:04.961Z,99099.45
2022-10-05T08:28:45.474Z,99096.52
2022-10-05T08:31:25.198Z,99107.67
2022-10-05T08:34:22.279Z,99104.84
2022-10-05T08:36:55.150Z,99096.77
2022-10-05T08:39:24.964Z,99098.06
2022-10-05T08:42:05.122Z,99101.38
2022-10-05T08:44:53.063Z,99098.61
2022-10-05T08:47:40.600Z,99102.71
2022-10-05T08:50:30.617Z,99108.44
2022-10-05T08:53:24.162Z,99108.30
2022-10-05T08:56:03.125Z,99101.41
2022-10-05T08:58:40.499Z,99100.98
2022-10-05T09:01:18.637Z,99099.14
2022-10-05T09:04:19.627Z,99095.27
2022-10-05T09:06:55.418Z,99095.65
2022-10-05T09:09:50.013Z,99102.39
2022-10-05T09:12:35.699Z,99100.29
2022-10-05T09:15:34.037Z,99097.10
2022-10-05T09:18:03.499Z,99094.25
2022-10-05T09:20:39.461Z,99097.75
2022-10-05T09:23:27.102Z,99095.08
2022-10-05T09:26:07.261Z,99085.00
2022-10-05T09:29:00.219Z,99080.33
2022-10-05T09:31:26.660Z,99072.67
2022-10-05T09:34:27.593Z,99071.59
2022-10-05T09:37:23.125Z,99072.85
2022-10-05T09:40:28.475Z,99071.02
2022-10-05T09:43:05.257Z,99068.65
2022-10-05T09:46:12.035Z,99071.23
2022-10-05T09:49:03.675Z,99076.77
2022-10-05T09:51:51.305Z,99075.50
2022-10-05T09:54:48.960Z,99083.73
2022-10-05T09:57:43.599Z,99089.85
2022-10-05T10:00:22.558Z,99088.35
2022-10-05T10:03:21.266Z,99092.92
2022-10-05T10:06:12.975Z,99092.27
2022-10-05T10:08:48.302Z,99082.05
2022-10-05T10:11:36.958Z,99077.70
2022-10-05T10:14:45.067Z,99077.25
2022-10-05T10:17:29.778Z,99076.47
2022-10-05T10:20:19.722Z,99069.39
2022-10-05T10:23:07.867Z,99063.39
2022-10-05T10:25:56.238Z,99062.84
2022-10-05T10:28:50.924Z,99059.70
2022-10-05T10:31:37.762Z,99054.17
2022-10-05T10:34:23.220Z,99046.38
2022-10-05T10:37:07.069Z,99043.74
2022-10-05T10:39:59.206Z,99044.15
2022-10-05T10:42:47.043Z,99047.65
2022-10-05T10:45:39.059Z,99046.52
2022-10-05T10:48:28.669Z,99050.95
2022-10-05T10:51:01.170Z,99054.48
2022-10-05T10:54:05.464Z,99045.19
2022-10-05T10:56:53.506Z,99037.58
2022-10-05T10:59:38.416Z,99034.85
2022-10-05T11:02:23.734Z,99028.62
2022-10-05T11:05:17.923Z,99034.36
2022-10-05T11:08:23.050Z,99032.34
2022-10-05T11:11:19.617Z,99030.41
2022-10-05T11:14:22.226Z,99033.59
2022-10-05T11:17:13.199Z,99029.01
2022-10-05T11:20:02.983Z,99030.38
2022-10-05T11:22:50.983Z,99029.89
2022-10-05T11:25:29.502Z,99022.23
2022-10-05T11:28:15.146Z,99025.59
2022-10-05T11:30:56.792Z,99027.80
2022-10-05T11:33:57.477Z,99030.69
2022-10-05T11:36:52.241Z,99032.76
2022-10-05T11:39:44.472Z,99032.23
2022-10-05T11:42:17.053Z,99032.81
2022-10-05T11:44:52.404Z,99025.12
2022-10-05T11:47:37.688Z,99025.17
2022-10-05T11:50:23.984Z,99029.13
2022-10-05T11:53:15.037Z,99026.64
2022-10-05T11:55:50.453Z,99024.27
2022-10-05T11:58:26.164Z,99025.36
2022-10-05T12:01:17.124Z,99028.47
2022-10-05T12:03:46.399Z,99023.64
2022-10-05T12:06:31.198Z,99020.34
2022-10-05T12:09:12.984Z,99020.36
2022-10-05T12:11:58.231Z,99022.37
2022-10-05T12:15:00.648Z,99025.70
2022-10-05T12:17:33.657Z,99020.80
2022-10-05T12:20:07.230Z,99025.61
2022-10-05T12:22:41.782Z,99028.80
2022-10-05T12:25:30.854Z,99028.71
2022-10-05T12:28:03.453Z,99034.02
2022-10-05T12:31:07.773Z,99030.37
2022-10-05T12:33:46.185Z,99026.73
2022-10-05T12:37:05.041Z,99027.92
2022-10-05T12:39:58.041Z,99027.64
2022-10-05T12:42:33.412Z,99021.94
2022-10-05T12:45:26.660Z,99023.28
2022-10-05T12:48:39.877Z,99028.40
2022-10-05T12:51:11.989Z,99025.55
2022-10-05T12:53:59.415Z,99021.98
2022-10-05T12:56:38.087Z,99019.67
2022-10-05T12:59:35.039Z,99019.99
2022-10-05T13:02:07.337Z,99017.48
2022-10-05T13:04:59.066Z,99015.91
2022-10-05T13:07:47.492Z,99014.27
2022-10-05T13:10:23.124Z,99009.86
2022-10-05T13:13:06.097Z,99010.40
2022-10-05T13:16:01.612Z,99013.22
2022-10-05T13:18:57.007Z,99014.58
2022-10-05T13:21:33.640Z,99012.62
2022-10-05T13:24:06.915Z,99010.09
2022-10-05T13:26:37.631Z,99008.71
2022-10-05T13:29:54.625Z,99008.67
2022-10-05T13:32:43.815Z,99009.80
2022-10-05T13:35:28.993Z,99014.27
2022-10-05T13:38:34.047Z,99010.05
2022-10-05T13:41:24.018Z,99009.02
2022-10-05T13:44:00.020Z,99007.58
2022-10-05T13:46:38.819Z,99007.02
2022-10-05T13:49:32.775Z,99010.75
2022-10-05T13:52:08.368Z,99008.15
2022-10-05T13:54:34.784Z,99006.95
2022-10-05T13:57:04.106Z,99003.64
2022-10-05T13:59:37.875Z,99006.43
2022-10-05T14:02:08.716Z,99001.17
2022-10-05T14:04:44.205Z,98996.30
2022-10-05T14:07:29.772Z,98996.91
2022-10-05T14:09:57.504Z,98996.05
2022-10-05T14:12:26.674Z,98990.75
2022-10-05T14:14:58.330Z,98987.42
2022-10-05T14:17:33.784Z,98985.70
2022-10-05T14:20:03.321Z,98988.48
2022-10-05T14:22:29.937Z,98988.57
2022-10-05T14:25:02.315Z,98985.64
2022-10-05T14:27:31.301Z,98982.70
2022-10-05T14:30:12.875Z,98982.78
2022-10-05T14:32:53.578Z,98987.68
2022-10-05T14:35:20.526Z,98985.45
2022-10-05T14:38:01.092Z,98988.56
2022-10-05T14:40:36.480Z,98991.80
2022-10-05T14:43:15.164Z,98988.35
2022-10-05T14:46:16.368Z,98990.55
2022-10-05T14:48:45.315Z,98982.73
2022-10-05T14:51:31.550Z,98979.74
2022-10-05T14:54:01.062Z,98974.27
2022-10-05T14:56:36.582Z,98969.43
2022-10-05T14:59:20.428Z,98964.64
2022-10-05T15:02:24.976Z,98964.19
2022-10-05T15:05:07.679Z,98973.66
2022-10-05T15:07:41.419Z,98975.55
2022-10-05T15:10:43.009Z,98972.67
2022-10-05T15:13:15.960Z,98976.66
2022-10-05T15:15:56.712Z,98972.12
2022-10-05T15:18:38.283Z,98963.55
2022-10-05T15:21:36.358Z,98966.39
2022-10-05T15:24:13.470Z,98970.73
2022-10-05T15:26:55.635Z,98971.28
2022-10-05T15:29:52.407Z,98965.47
2022-10-05T15:32:47.539Z,98967.65
2022-10-05T15:35:35.787Z,98970.57
2022-10-05T15:38:11.136Z,98969.90
2022-10-05T15:40:45.148Z,98969.39
2022-10-05T15:43:15.585Z,98974.41
2022-10-05T15:45:52.966Z,98973.06
2022-10-05T15:48:35.434Z,98971.61
2022-10-05T15:51:27.558Z,98969.44
2022-10-05T15:54:09.329Z,98973.45
2022-10-05T15:56:40.984Z,98972.21
2022-10-05T15:59:35.023Z,98978.39
2022-10-05T16:02:07.525Z,98976.72
2022-10-05T16:04:41.041Z,98973.01
2022-10-05T16:07:17.355Z,98976.10
2022-10-05T16:09:52.920Z,98974.16
2022-10-05T16:12:29.541Z,98971.27
2022-10-05T16:15:14.751Z,98967.69
2022-10-05T16:18:04.632Z,98971.64
2022-10-05T16:20:53.266Z,98971.83
2022-10-05T16:23:44.309Z,98970.06
2022-10-05T16:26:49.343Z,98976.38
2022-10-05T16:29:56.332Z,98980.81
2022-10-05T16:32:30.754Z,98983.66
2022-10-05T16:35:25.340Z,98987.00
2022-10-05T16:38:19.445Z,98983.00
2022-10-05T16:41:11.894Z,98986.83
2022-10-05T16:43:57.971Z,98987.27
2022-10-05T16:46:39.997Z,98984.46
2022-10-05T16:49:25.216Z,98978.33
2022-10-05T16:51:57.961Z,98981.45
2022-10-05T16:54:28.481Z,98978.58
2022-10-05T16:57:03.473Z,98983.34
2022-10-05T16:59:59.514Z,98981.38
2022-10-05T17:02:56.923Z,98981.94
2022-10-05T17:05:36.070Z,98987.15
2022-10-05T17:08:26.886Z,98988.38
2022-10-05T17:11:05.749Z,98984.95
2022-10-05T17:14:10.598Z,98981.61
2022-10-05T17:16:46.207Z,98980.38
2022-10-05T17:19:41.998Z,98976.65
2022-10-05T17:22:30.464Z,98972.59
2022-10-05T17:25:12.260Z,98972.20
2022-10-05T17:27:56.980Z,98972.88
2022-10-05T17:30:29.849Z,98975.19
2022-10-05T17:33:13.448Z,98976.84
2022-10-05T17:35:55.495Z,98969.97
2022-10-05T17:38:23.758Z,98969.33
2022-10-05T17:41:11.516Z,98974.90
2022-10-05T17:43:38.559Z,98968.21
2022-10-05T17:46:09.930Z,98964.06
2022-10-05T17:48:48.634Z,98961.33
2022-10-05T17:51:30.331Z,98955.52
2022-10-05T17:53:58.156Z,98962.29
2022-10-05T17:56:24.675Z,98961.34
2022-10-05T17:58:51.083Z,98959.16
2022-10-05T18:01:30.248Z,98959.45
2022-10-05T18:04:11.989Z,98958.28
2022-10-05T18:06:57.093Z,98956.91
2022-10-05T18:09:23.634Z,98961.13
2022-10-05T18:12:23.968Z,98956.02
2022-10-05T18:14:53.176Z,98955.92
2022-10-05T18:17:43.571Z,98956.23
2022-10-05T18:20:25.267Z,98954.14
2022-10-05T18:22:54.224Z,98955.48
2022-10-05T18:25:44.871Z,98955.15
2022-10-05T18:28:39.393Z,98957.09
2022-10-05T18:31:39.154Z,98953.70
2022-10-05T18:34:30.822Z,98952.06
2022-10-05T18:37:31.190Z,98950.45
2022-10-05T18:40:39.683Z,98950.87
2022-10-05T18:43:21.562Z,98949.16
2022-10-05T18:45:54.064Z,98946.52
2022-10-05T18:48:35.251Z,98945.76
2022-10-05T18:51:23.491Z,98941.08
2022-10-05T18:54:11.553Z,98944.02
2022-10-05T18:56:44.728Z,98952.67
2022-10-05T18:59:47.625Z,98948.33
2022-10-05T19:02:33.898Z,98950.59
2022-10-05T19:05:03.438Z,98949.95
2022-10-05T19:07:44.620Z,98951.18
2022-10-05T19:10:16.998Z,98951.76
2022-10-05T19:13:01.354Z,98951.33
2022-10-05T19:15:43.350Z,98952.48
2022-10-05T19:18:40.826Z,98951.72
2022-10-05T19:21:15.528Z,98954.42
2022-10-05T19:23:57.158Z,98960.77
2022-10-05T19:26:52.282Z,98961.34
2022-10-05T19:30:00.479Z,98958.96
2022-10-05T19:32:42.075Z,98966.89
2022-10-05T19:35:11.688Z,98964.96
2022-10-05T19:38:03.217Z,98966.70
2022-10-05T19:40:47.164Z,98966.42
2022-10-05T19:43:40.975Z,98965.79
2022-10-05T19:46:27.382Z,98966.09
2022-10-05T19:48:54.711Z,98969.55
2022-10-05T19:51:24.020Z,98973.97
2022-10-05T19:53:52.454Z,98976.04
2022-10-05T19:56:21.713Z,98976.86
2022-10-05T19:58:49.937Z,98977.41
2022-10-05T20:01:34.805Z,98977.75
2022-10-05T20:04:01.409Z,98975.34
2022-10-05T20:06:28.209Z,98970.00
2022-10-05T20:08:59.190Z,98976.51
2022-10-05T20:11:27.581Z,98975.39
2022-10-05T20:13:53.968Z,98976.09
2022-10-05T20:16:26.487Z,98977.53
2022-10-05T20:18:53.516Z,98974.60
2022-10-05T20:21:52.417Z,98985.04
2022-10-05T20:24:18.896Z,98985.90
2022-10-05T20:26:46.868Z,98989.36
2022-10-05T20:29:13.482Z,98992.75
2022-10-05T20:31:39.946Z,98995.08
2022-10-05T20:34:06.483Z,98992.34
2022-10-05T20:36:33.024Z,98982.18
2022-10-05T20:38:59.540Z,98982.65
2022-10-05T20:41:26.095Z,98984.88
2022-10-05T20:43:52.588Z,98984.34
2022-10-05T20:46:19.096Z,98986.88
2022-10-05T20:48:45.625Z,98987.06
2022-10-05T20:51:12.117Z,98989.04
2022-10-05T20:53:38.611Z,98989.32
2022-10-05T20:56:05.642Z,98985.13
2022-10-05T20:58:32.126Z,98987.27
2022-10-05T21:00:58.762Z,98989.95
2022-10-05T21:03:25.366Z,98999.80
2022-10-05T21:05:51.907Z,98997.48
2022-10-05T21:08:18.448Z,98995.71
2022-10-05T21:10:44.884Z,98999.51
2022-10-05T21:13:11.442Z,99005.12
2022-10-05T21:15:38.067Z,99007.98
2022-10-05T21:18:04.606Z,99006.02
2022-10-05T21:20:31.149Z,99008.28
2022-10-05T21:22:57.690Z,99007.75
2022-10-05T21:25:24.181Z,99010.98
2022-10-05T21:27:50.768Z,99005.63
2022-10-05T21:30:17.427Z,99011.67
2022-10-05T21:32:44.816Z,99012.77
2022-10-05T21:35:12.857Z,99014.69
2022-10-05T21:37:39.396Z,99017.36
2022-10-05T21:40:06.245Z,99018.50
2022-10-05T21:42:32.992Z,99017.99
2022-10-05T21:44:59.475Z,99017.14
2022-10-05T21:47:26.023Z,99018.30
2022-10-05T21:49:52.772Z,99023.59
2022-10-05T21:52:20.221Z,99017.77
2022-10-05T21:54:46.932Z,99019.55
2022-10-05T21:57:13.777Z,99023.48
2022-10-05T21:59:40.757Z,99018.25
2022-10-05T22:02:07.268Z,99027.02
2022-10-05T22:04:33.935Z,99022.46
2022-10-05T22:07:00.525Z,99018.40
2022-10-05T22:09:27.091Z,99018.89
2022-10-05T22:11:53.634Z,99018.89
2022-10-05T22:14:20.172Z,99013.03
2022-10-05T22:16:46.741Z,99017.98
2022-10-05T22:19:18.175Z,99013.42
2022-10-05T22:21:44.612Z,99012.46
2022-10-05T22:24:11.120Z,99010.92
2022-10-05T22:26:38.922Z,99012.65
2022-10-05T22:29:05.671Z,99006.42
2022-10-05T22:31:32.495Z,99009.62
2022-10-05T22:33:59.166Z,99012.98
2022-10-05T22:36:25.940Z,99013.91
2022-10-05T22:38:52.419Z,99012.66
2022-10-05T22:41:19.298Z,99009.80
2022-10-05T22:43:47.478Z,99012.71
2022-10-05T22:46:14.203Z,99013.41
2022-10-05T22:48:40.967Z,99010.59
2022-10-05T22:51:07.904Z,99013.42
2022-10-05T22:53:35.184Z,99018.75
2022-10-05T22:56:10.436Z,99016.80
2022-10-05T22:58:37.398Z,99013.42
2022-10-05T23:01:06.630Z,99011.45
2022-10-05T23:03:33.936Z,99008.13
2022-10-05T23:06:03.714Z,99007.78
2022-10-05T23:08:31.981Z,99007.23
2022-10-05T23:11:13.474Z,99006.02
2022-10-05T23:13:40.679Z,99013.11
2022-10-05T23:16:09.600Z,99012.13
2022-10-05T23:18:38.140Z,99014.41
2022-10-05T23:21:05.969Z,99013.59
2022-10-05T23:23:32.474Z,99012.23
2022-10-05T23:26:00.731Z,99008.02
2022-10-05T23:28:29.249Z,99012.45
2022-10-05T23:31:04.762Z,99012.98
2022-10-05T23:33:31.436Z,99011.45
2022-10-05T23:36:02.890Z,99014.77
2022-10-05T23:38:30.279Z,99018.98
2022-10-05T23:40:57.205Z,99017.34
2022-10-05T23:43:23.714Z,99010.16
2022-10-05T23:45:50.721Z,99016.86
2022-10-05T23:48:17.226Z,99017.79
2022-10-05T23:50:46.428Z,99013.48
2022-10-05T23:53:13.789Z,99021.09
2022-10-05T23:55:40.232Z,99024.25
2022-10-05T23:58:06.968Z,99029.20
